Terminal Aerodrome Forecast
Issued by NWS

Home | Current Version | Previous Version | Text Only | Print | Product List | Glossary On
Versions: 1 2 3 4 5 6 7 8 9 10 11 12
000
FTUS43 KBIS 061132
TAFMOT
TAF
KMOT 061132Z 0612/0712 13007KT 6SM -SHRA SCT015 OVC030
     FM061400 15012KT P6SM VCSH SCT015 BKN030
     FM061700 14010KT 5SM SHRA BR SCT008 OVC025
     FM070700 34010KT P6SM VCSH OVC030=

USA.gov is the U.S. government's official web portal to all federal, state and local government web resources and services.